Time;durP1;ratioP1;P1;durP2;ratioP2;P2;SDS_P1;SDS_P2;PMS_P1;PMS_P2;Temp;Humidity;BMP_temperature;BMP_pressure;BME280_temperature;BME280_humidity;BME280_pressure;Samples;Min_cycle;Max_cycle;Signal;HPM_P1;HPM_P2
2022/02/27 07:01:18;;;;;;;6.10;3.35;;;;;;;;;;5421408;24;20060;-86
2022/02/27 07:03:45;;;;;;;9.68;3.53;;;;;;;;;;4916019;29;20104;-86
2022/02/27 07:06:12;;;;;;;9.23;3.30;;;;;;;;;;4912331;29;20127;-86
2022/02/27 07:08:38;;;;;;;5.70;3.30;;;;;;;;;;4899138;29;20055;-87
2022/02/27 07:11:05;;;;;;;8.35;3.28;;;;;;;;;;4915398;29;20500;-86
2022/02/27 07:13:32;;;;;;;7.70;3.28;;;;;;;;;;4898662;29;20048;-86
2022/02/27 07:15:59;;;;;;;7.43;3.13;;;;;;;;;;4915800;29;20621;-85
2022/02/27 07:18:25;;;;;;;6.57;3.13;;;;;;;;;;4898577;29;20044;-85
2022/02/27 07:20:52;;;;;;;5.50;2.80;;;;;;;;;;4915836;29;20052;-85
2022/02/27 07:23:19;;;;;;;7.63;2.90;;;;;;;;;;4915367;29;20107;-86
2022/02/27 07:25:46;;;;;;;4.95;2.90;;;;;;;;;;4915823;29;20139;-86
2022/02/27 07:28:14;;;;;;;6.60;2.95;;;;;;;;;;4898290;29;20079;-86
2022/02/27 07:30:41;;;;;;;6.43;3.58;;;;;;;;;;4916029;29;20048;-85
2022/02/27 07:33:08;;;;;;;5.75;3.53;;;;;;;;;;4915300;29;20056;-85
2022/02/27 07:35:34;;;;;;;5.65;3.20;;;;;;;;;;4898360;29;20048;-85
2022/02/27 07:38:01;;;;;;;9.65;3.85;;;;;;;;;;4898221;29;20063;-85
2022/02/27 07:40:27;;;;;;;7.38;3.60;;;;;;;;;;4914445;29;20051;-85
2022/02/27 07:42:54;;;;;;;6.53;3.33;;;;;;;;;;4915154;29;20099;-85
2022/02/27 07:45:22;;;;;;;5.85;3.08;;;;;;;;;;4915084;29;20143;-86
2022/02/27 07:47:49;;;;;;;9.57;4.72;;;;;;;;;;4915547;29;20108;-85
2022/02/27 07:50:15;;;;;;;9.68;4.32;;;;;;;;;;4906870;29;20457;-86
2022/02/27 07:52:42;;;;;;;11.30;3.85;;;;;;;;;;4914882;29;20058;-85
2022/02/27 07:55:09;;;;;;;6.60;3.63;;;;;;;;;;4914539;29;20436;-85
2022/02/27 07:57:35;;;;;;;9.20;4.03;;;;;;;;;;4914833;29;20091;-85
2022/02/27 08:00:04;;;;;;;9.13;4.00;;;;;;;;;;4898313;29;20572;-86
2022/02/27 08:02:31;;;;;;;10.65;4.00;;;;;;;;;;4914130;29;20052;-87
2022/02/27 08:04:57;;;;;;;9.35;3.78;;;;;;;;;;4914962;29;20052;-86
2022/02/27 08:07:24;;;;;;;9.75;3.75;;;;;;;;;;4914415;29;20056;-87
2022/02/27 08:09:51;;;;;;;9.57;3.67;;;;;;;;;;4924752;29;20048;-87
2022/02/27 08:12:18;;;;;;;8.02;4.00;;;;;;;;;;4897653;29;20052;-87
2022/02/27 08:14:46;;;;;;;8.18;3.90;;;;;;;;;;4915386;29;20052;-87
2022/02/27 08:17:13;;;;;;;;;;;;;;;;;;4915114;29;20099;-87
2022/02/27 08:19:40;;;;;;;9.77;4.22;;;;;;;;;;4913943;29;20004;-86
2022/02/27 08:22:07;;;;;;;7.95;3.78;;;;;;;;;;4910346;29;20060;-87
2022/02/27 08:24:33;;;;;;;5.65;3.53;;;;;;;;;;4894257;29;20059;-87
2022/02/27 08:27:00;;;;;;;7.82;3.95;;;;;;;;;;4911435;29;20537;-87
2022/02/27 08:29:27;;;;;;;8.50;4.03;;;;;;;;;;4892439;29;20044;-85
2022/02/27 08:31:53;;;;;;;7.72;3.70;;;;;;;;;;4911832;29;20079;-85
2022/02/27 08:34:20;;;;;;;8.02;3.63;;;;;;;;;;4906907;29;20047;-85
2022/02/27 08:36:47;;;;;;;7.50;3.80;;;;;;;;;;4911489;29;20048;-85
2022/02/27 08:39:14;;;;;;;7.15;3.58;;;;;;;;;;4911813;29;20485;-86
2022/02/27 08:41:40;;;;;;;10.55;4.57;;;;;;;;;;4910002;29;20461;-85
2022/02/27 08:44:07;;;;;;;8.55;3.72;;;;;;;;;;4893094;29;20103;-86
2022/02/27 08:46:34;;;;;;;13.63;4.28;;;;;;;;;;4910718;29;20056;-86
2022/02/27 08:49:01;;;;;;;10.00;3.72;;;;;;;;;;4893825;29;20729;-85
2022/02/27 08:51:28;;;;;;;9.27;3.75;;;;;;;;;;4909424;29;20051;-84
2022/02/27 08:53:55;;;;;;;9.23;4.05;;;;;;;;;;4911698;29;20104;-85
2022/02/27 08:56:21;;;;;;;7.90;3.58;;;;;;;;;;4892851;29;20047;-86
2022/02/27 08:58:48;;;;;;;8.88;3.63;;;;;;;;;;4909761;29;20080;-86
2022/02/27 09:01:14;;;;;;;8.65;4.00;;;;;;;;;;4910402;29;20048;-85
2022/02/27 09:03:44;;;;;;;11.73;3.70;;;;;;;;;;4903007;29;20111;-86
2022/02/27 09:06:10;;;;;;;7.60;3.88;;;;;;;;;;4909615;29;20040;-85
2022/02/27 09:08:40;;;;;;;7.30;3.85;;;;;;;;;;4915072;29;20078;-86
2022/02/27 09:11:06;;;;;;;9.90;3.83;;;;;;;;;;4909069;29;20524;-86
2022/02/27 09:13:33;;;;;;;7.57;3.85;;;;;;;;;;4912075;29;20079;-87
2022/02/27 09:16:00;;;;;;;10.02;3.42;;;;;;;;;;4920623;29;20107;-87
2022/02/27 09:18:26;;;;;;;7.43;3.17;;;;;;;;;;4912874;29;20096;-87
2022/02/27 09:20:53;;;;;;;7.43;3.65;;;;;;;;;;4909479;29;20104;-87
2022/02/27 09:23:21;;;;;;;10.18;3.92;;;;;;;;;;4910698;29;20499;-90
2022/02/27 09:25:49;;;;;;;10.80;4.07;;;;;;;;;;4915935;29;20043;-87
2022/02/27 09:28:36;;;;;;;11.88;3.75;;;;;;;;;;4915420;29;20054;-89
2022/02/27 09:31:03;;;;;;;14.20;4.07;;;;;;;;;;4915394;29;20056;-88
2022/02/27 09:33:30;;;;;;;9.43;4.28;;;;;;;;;;4899992;29;20052;-87
2022/02/27 09:35:57;;;;;;;9.13;3.58;;;;;;;;;;4916607;29;20044;-88
2022/02/27 09:38:23;;;;;;;9.70;4.15;;;;;;;;;;4913315;29;20048;-88
2022/02/27 09:40:52;;;;;;;10.57;3.92;;;;;;;;;;4916378;29;20154;-88
2022/02/27 09:43:19;;;;;;;8.02;3.70;;;;;;;;;;4909385;29;20052;-89
2022/02/27 09:45:47;;;;;;;9.40;3.88;;;;;;;;;;4918829;29;20056;-86
2022/02/27 09:48:14;;;;;;;9.80;4.65;;;;;;;;;;4911627;29;20410;-88
2022/02/27 09:50:41;;;;;;;13.27;3.92;;;;;;;;;;4916702;29;20052;-88
2022/02/27 09:53:09;;;;;;;10.32;3.75;;;;;;;;;;4916683;29;20120;-88
2022/02/27 09:55:37;;;;;;;12.82;3.85;;;;;;;;;;4898630;29;20044;-89
2022/02/27 09:58:05;;;;;;;13.18;3.65;;;;;;;;;;4914823;29;20195;-85
2022/02/27 10:00:32;;;;;;;12.23;3.60;;;;;;;;;;4897088;29;20139;-86
2022/02/27 10:03:16;;;;;;;9.47;3.80;;;;;;;;;;4899791;29;20144;-86
2022/02/27 10:05:46;;;;;;;12.50;4.00;;;;;;;;;;4909956;29;20349;-89
2022/02/27 10:08:15;;;;;;;8.20;4.15;;;;;;;;;;4914447;29;20075;-86
2022/02/27 10:10:57;;;;;;;12.05;3.70;;;;;;;;;;4910997;29;20116;-85
2022/02/27 10:13:52;;;;;;;9.75;3.70;;;;;;;;;;4893822;29;20063;-85
2022/02/27 10:16:21;;;;;;;10.93;3.90;;;;;;;;;;4907017;29;20060;-85
2022/02/27 10:18:50;;;;;;;8.98;3.90;;;;;;;;;;4913676;29;20056;-86
2022/02/27 10:21:37;;;;;;;;;;;;;;;;;;4914850;29;20052;-87
2022/02/27 10:24:20;;;;;;;10.38;4.18;;;;;;;;;;4909315;29;19938;-87
2022/02/27 10:26:50;;;;;;;10.95;3.83;;;;;;;;;;4911589;29;20513;-86
2022/02/27 10:29:18;;;;;;;14.75;4.57;;;;;;;;;;4915655;29;20056;-88
2022/02/27 10:31:52;;;;;;;9.95;4.20;;;;;;;;;;4916997;29;20394;-88
2022/02/27 10:34:23;;;;;;;15.30;4.28;;;;;;;;;;4910396;29;20127;-86
2022/02/27 10:37:07;;;;;;;20.35;5.25;;;;;;;;;;4913925;29;20788;-88
2022/02/27 10:39:43;;;;;;;13.00;3.67;;;;;;;;;;4914528;29;20048;-90
2022/02/27 10:42:17;;;;;;;11.82;3.83;;;;;;;;;;4911912;29;20062;-88
2022/02/27 10:44:50;;;;;;;10.82;3.65;;;;;;;;;;4895769;29;20052;-87
2022/02/27 10:47:17;;;;;;;17.17;3.88;;;;;;;;;;4907858;29;20109;-86
2022/02/27 10:49:46;;;;;;;13.25;3.40;;;;;;;;;;4911937;29;20170;-83
2022/02/27 10:52:25;;;;;;;17.35;4.93;;;;;;;;;;4910715;29;20086;-84
2022/02/27 10:54:57;;;;;;;15.32;4.15;;;;;;;;;;4910055;29;20056;-82
2022/02/27 10:57:37;;;;;;;17.05;3.90;;;;;;;;;;4912017;29;20055;-84
2022/02/27 11:00:18;;;;;;;12.02;4.00;;;;;;;;;;4911595;29;20052;-83
2022/02/27 11:02:49;;;;;;;13.23;4.47;;;;;;;;;;4873727;29;20123;-81
2022/02/27 11:05:19;;;;;;;10.15;3.97;;;;;;;;;;4873327;29;20518;-83
2022/02/27 11:07:48;;;;;;;15.93;4.25;;;;;;;;;;4877751;29;20048;-83
2022/02/27 11:10:19;;;;;;;;;;;;;;;;;;4876644;29;20506;-83
2022/02/27 11:12:46;;;;;;;11.05;3.90;;;;;;;;;;4875865;29;19928;-82
2022/02/27 11:15:16;;;;;;;18.40;4.00;;;;;;;;;;4874596;29;20091;-83
2022/02/27 11:17:45;;;;;;;20.90;3.72;;;;;;;;;;4877513;29;20065;-83
2022/02/27 11:20:14;;;;;;;17.83;3.95;;;;;;;;;;4877033;29;20055;-83
2022/02/27 11:22:41;;;;;;;17.15;3.25;;;;;;;;;;4880255;29;20074;-84
2022/02/27 11:25:09;;;;;;;16.25;3.63;;;;;;;;;;4877601;29;20117;-84
2022/02/27 11:27:41;;;;;;;18.95;4.05;;;;;;;;;;4876663;29;20049;-83
2022/02/27 11:30:09;;;;;;;15.88;4.38;;;;;;;;;;4876561;29;20084;-83
2022/02/27 11:32:46;;;;;;;12.82;3.60;;;;;;;;;;4873035;29;20073;-84
2022/02/27 11:35:36;;;;;;;22.95;4.43;;;;;;;;;;4880121;29;20045;-83
2022/02/27 11:38:17;;;;;;;18.45;4.60;;;;;;;;;;4876857;29;20517;-82
2022/02/27 11:40:45;;;;;;;21.70;6.32;;;;;;;;;;4873137;29;20092;-83
2022/02/27 11:43:17;;;;;;;21.48;5.90;;;;;;;;;;4875000;29;20045;-85
2022/02/27 11:45:43;;;;;;;19.40;6.40;;;;;;;;;;4874774;29;20061;-84
2022/02/27 11:48:13;;;;;;;20.42;5.70;;;;;;;;;;4876710;29;20073;-85
2022/02/27 11:50:43;;;;;;;20.27;4.82;;;;;;;;;;4872918;29;20474;-85
2022/02/27 11:53:20;;;;;;;120.53;52.58;;;;;;;;;;4868893;29;20534;-86
2022/02/27 11:55:48;;;;;;;39.78;11.82;;;;;;;;;;4869161;29;20053;-84
2022/02/27 11:58:37;;;;;;;45.20;13.52;;;;;;;;;;4871707;29;20049;-86
2022/02/27 12:01:04;;;;;;;30.70;11.05;;;;;;;;;;4881388;29;20083;-82
2022/02/27 12:03:32;;;;;;;77.05;22.05;;;;;;;;;;4907352;29;20053;-83
2022/02/27 12:06:02;;;;;;;29.20;6.97;;;;;;;;;;4894447;29;20143;-83
2022/02/27 12:08:40;;;;;;;31.63;8.43;;;;;;;;;;4910352;29;20146;-83
2022/02/27 12:11:26;;;;;;;37.08;10.93;;;;;;;;;;4910148;29;20501;-83
2022/02/27 12:14:04;;;;;;;29.48;5.63;;;;;;;;;;4908947;29;20500;-84
2022/02/27 12:16:46;;;;;;;34.80;8.38;;;;;;;;;;4910236;29;20059;-83
2022/02/27 12:19:24;;;;;;;21.98;5.22;;;;;;;;;;4906843;29;20083;-83
2022/02/27 12:21:55;;;;;;;26.85;7.50;;;;;;;;;;4908019;29;20409;-84
2022/02/27 12:24:26;;;;;;;28.23;5.80;;;;;;;;;;4904890;29;20063;-83
2022/02/27 12:26:54;;;;;;;30.83;10.98;;;;;;;;;;4893169;29;20108;-85
2022/02/27 12:29:25;;;;;;;27.40;6.88;;;;;;;;;;4908626;29;20613;-83
2022/02/27 12:31:52;;;;;;;22.15;5.50;;;;;;;;;;4905959;29;20056;-83
2022/02/27 12:34:21;;;;;;;26.38;6.15;;;;;;;;;;4887481;29;20103;-83
2022/02/27 12:36:51;;;;;;;20.05;4.63;;;;;;;;;;4904300;29;20044;-84
2022/02/27 12:39:19;;;;;;;18.10;5.68;;;;;;;;;;4910104;29;20115;-81
2022/02/27 12:41:51;;;;;;;24.42;5.40;;;;;;;;;;4907516;29;20048;-83
2022/02/27 12:44:35;;;;;;;18.08;4.63;;;;;;;;;;4906630;29;20155;-85
2022/02/27 12:47:06;;;;;;;23.48;5.32;;;;;;;;;;4910928;29;20142;-84
2022/02/27 12:52:25;;;;;;;27.45;5.32;;;;;;;;;;4909569;29;20508;-84
2022/02/27 12:54:56;;;;;;;28.17;4.97;;;;;;;;;;4911796;29;20079;-84
2022/02/27 12:57:24;;;;;;;33.67;6.18;;;;;;;;;;4912198;29;20095;-83
2022/02/27 12:59:52;;;;;;;24.98;4.90;;;;;;;;;;4914617;29;20048;-84
2022/02/27 13:02:26;;;;;;;28.90;6.03;;;;;;;;;;4910654;29;20048;-83
2022/02/27 13:04:58;;;;;;;27.77;5.05;;;;;;;;;;4912240;29;20048;-85
2022/02/27 13:07:26;;;;;;;25.60;5.13;;;;;;;;;;4916423;29;20123;-86
2022/02/27 13:09:54;;;;;;;26.50;4.65;;;;;;;;;;4914553;29;20398;-83
2022/02/27 13:12:31;;;;;;;26.27;4.65;;;;;;;;;;4911669;29;20095;-85
2022/02/27 13:15:00;;;;;;;31.17;5.63;;;;;;;;;;4893467;29;20087;-82
2022/02/27 13:17:27;;;;;;;;;;;;;;;;;;4915469;29;20115;-83
2022/02/27 13:19:55;;;;;;;35.03;4.55;;;;;;;;;;4906600;29;19970;-84
2022/02/27 13:22:31;;;;;;;27.05;5.38;;;;;;;;;;4908716;29;20501;-84
2022/02/27 13:25:09;;;;;;;32.80;6.05;;;;;;;;;;4907459;29;20048;-82
2022/02/27 13:27:38;;;;;;;28.33;5.35;;;;;;;;;;4909446;29;20052;-83
2022/02/27 13:30:06;;;;;;;;;;;;;;;;;;4892934;29;20044;-83
2022/02/27 13:32:38;;;;;;;33.08;5.38;;;;;;;;;;4909314;29;19923;-83
2022/02/27 13:35:07;;;;;;;;;;;;;;;;;;4912822;29;20154;-83
2022/02/27 13:38:03;;;;;;;32.03;5.35;;;;;;;;;;4904613;29;20447;-83
2022/02/27 13:40:33;;;;;;;25.90;5.30;;;;;;;;;;4906692;29;20099;-83
2022/02/27 13:43:01;;;;;;;21.65;4.20;;;;;;;;;;4906096;29;20513;-83
2022/02/27 13:45:33;;;;;;;30.23;5.55;;;;;;;;;;4892293;29;20096;-82
2022/02/27 13:48:04;;;;;;;25.42;5.45;;;;;;;;;;4908518;29;20048;-83
2022/02/27 13:50:34;;;;;;;26.83;5.30;;;;;;;;;;4889812;29;20048;-84
2022/02/27 13:53:05;;;;;;;29.20;6.50;;;;;;;;;;4907930;29;20079;-84
2022/02/27 13:55:35;;;;;;;30.17;6.97;;;;;;;;;;4908347;29;20048;-83
2022/02/27 13:58:12;;;;;;;27.25;6.53;;;;;;;;;;4909221;29;20064;-84
2022/02/27 14:00:56;;;;;;;24.73;6.25;;;;;;;;;;4901073;29;20096;-85
2022/02/27 14:03:41;;;;;;;28.95;6.18;;;;;;;;;;4890285;29;20060;-82
2022/02/27 14:06:09;;;;;;;26.30;6.35;;;;;;;;;;4907741;29;20108;-83
2022/02/27 14:08:41;;;;;;;39.25;7.25;;;;;;;;;;4891140;29;20048;-83
2022/02/27 14:11:10;;;;;;;29.75;5.82;;;;;;;;;;4907684;29;20111;-83
2022/02/27 14:13:51;;;;;;;30.00;7.35;;;;;;;;;;4914340;29;20541;-83
2022/02/27 14:16:29;;;;;;;34.83;6.68;;;;;;;;;;4894527;29;20055;-84
2022/02/27 14:18:59;;;;;;;29.90;5.55;;;;;;;;;;4915407;29;20441;-83
2022/02/27 14:21:32;;;;;;;28.00;6.18;;;;;;;;;;4894861;29;20044;-81
2022/02/27 14:24:03;;;;;;;36.25;6.47;;;;;;;;;;4915332;29;20130;-86
2022/02/27 14:26:42;;;;;;;27.52;6.18;;;;;;;;;;4892155;29;20513;-82
2022/02/27 14:29:11;;;;;;;34.58;5.78;;;;;;;;;;4911205;29;20052;-85
2022/02/27 14:31:42;;;;;;;29.77;6.22;;;;;;;;;;4911850;29;20159;-83
2022/02/27 14:34:11;;;;;;;29.90;5.68;;;;;;;;;;4911887;29;20470;-82
2022/02/27 14:36:40;;;;;;;26.92;5.50;;;;;;;;;;4895072;29;20060;-84
2022/02/27 14:39:08;;;;;;;32.05;5.50;;;;;;;;;;4911454;29;20051;-82
2022/02/27 14:41:35;;;;;;;37.95;5.72;;;;;;;;;;4908108;29;20131;-84
2022/02/27 14:44:03;;;;;;;33.00;6.13;;;;;;;;;;4911102;29;20044;-84
2022/02/27 14:46:30;;;;;;;33.63;5.90;;;;;;;;;;4909179;29;20068;-84
2022/02/27 14:48:58;;;;;;;31.55;6.55;;;;;;;;;;4912950;29;20059;-84
2022/02/27 14:51:25;;;;;;;30.33;5.55;;;;;;;;;;4912149;29;20099;-83
2022/02/27 14:53:54;;;;;;;27.33;5.82;;;;;;;;;;4909255;29;20056;-82
2022/02/27 14:56:20;;;;;;;28.98;5.43;;;;;;;;;;4913633;29;20044;-83
2022/02/27 14:58:47;;;;;;;30.77;5.88;;;;;;;;;;4893809;29;20086;-83
2022/02/27 15:01:14;;;;;;;28.23;6.20;;;;;;;;;;4893847;29;20151;-83
2022/02/27 15:03:41;;;;;;;32.15;6.28;;;;;;;;;;4912027;29;20048;-83
2022/02/27 15:06:08;;;;;;;31.23;6.72;;;;;;;;;;4912358;29;20584;-84
2022/02/27 15:08:35;;;;;;;28.35;4.95;;;;;;;;;;4912543;29;20067;-83
2022/02/27 15:11:02;;;;;;;32.22;6.63;;;;;;;;;;4910911;29;20056;-84
2022/02/27 15:13:29;;;;;;;28.83;6.82;;;;;;;;;;4910910;29;20056;-82
2022/02/27 15:15:58;;;;;;;30.50;6.78;;;;;;;;;;4895127;29;20527;-83
2022/02/27 15:18:25;;;;;;;36.08;9.55;;;;;;;;;;4911589;29;20048;-81
2022/02/27 15:20:51;;;;;;;31.98;8.63;;;;;;;;;;4908372;29;20142;-83
2022/02/27 15:23:18;;;;;;;34.88;8.75;;;;;;;;;;4890711;29;20075;-84
2022/02/27 15:25:44;;;;;;;34.20;7.20;;;;;;;;;;4909805;29;20060;-85
2022/02/27 15:28:11;;;;;;;37.65;6.82;;;;;;;;;;4911564;29;20557;-85
2022/02/27 15:30:39;;;;;;;33.90;6.20;;;;;;;;;;4911228;29;20052;-84
2022/02/27 15:33:06;;;;;;;30.88;7.00;;;;;;;;;;4910657;29;21135;-84
2022/02/27 15:35:32;;;;;;;25.08;6.07;;;;;;;;;;4909132;29;20079;-84
2022/02/27 15:38:00;;;;;;;33.08;5.53;;;;;;;;;;4909981;29;20579;-84
2022/02/27 15:40:27;;;;;;;23.52;5.68;;;;;;;;;;4906560;29;20049;-84
2022/02/27 15:42:54;;;;;;;27.75;5.75;;;;;;;;;;4911325;29;20052;-84
2022/02/27 15:45:21;;;;;;;27.52;6.13;;;;;;;;;;4906767;29;20088;-84
2022/02/27 15:47:47;;;;;;;23.90;5.18;;;;;;;;;;4908766;29;20070;-84
2022/02/27 15:50:15;;;;;;;29.15;5.95;;;;;;;;;;4910060;29;20079;-84
2022/02/27 15:52:42;;;;;;;25.63;5.83;;;;;;;;;;4909943;29;20060;-85
2022/02/27 15:55:12;;;;;;;24.50;5.55;;;;;;;;;;4909593;29;20112;-87
2022/02/27 15:57:38;;;;;;;24.52;4.78;;;;;;;;;;4904497;29;20403;-87
2022/02/27 16:00:06;;;;;;;17.90;3.67;;;;;;;;;;4912082;29;20048;-86
2022/02/27 16:02:32;;;;;;;17.42;3.40;;;;;;;;;;4911243;29;20044;-90
2022/02/27 16:04:59;;;;;;;17.58;3.85;;;;;;;;;;4911363;29;20083;-88
2022/02/27 16:07:29;;;;;;;18.88;3.85;;;;;;;;;;4912326;29;20257;-87
2022/02/27 16:09:56;;;;;;;25.92;3.83;;;;;;;;;;4910163;29;20044;-86
2022/02/27 16:12:22;;;;;;;19.92;3.70;;;;;;;;;;4892288;29;20052;-86
2022/02/27 16:14:50;;;;;;;21.90;4.72;;;;;;;;;;4894508;29;20521;-86
2022/02/27 16:17:16;;;;;;;24.52;4.28;;;;;;;;;;4906561;29;20103;-87
2022/02/27 16:19:43;;;;;;;30.17;5.45;;;;;;;;;;4908981;29;20072;-86
2022/02/27 16:22:10;;;;;;;27.95;6.85;;;;;;;;;;4910489;29;20044;-85
2022/02/27 16:24:36;;;;;;;29.85;5.18;;;;;;;;;;4913026;29;20099;-86
2022/02/27 16:27:03;;;;;;;23.10;4.97;;;;;;;;;;4894216;29;20079;-89
2022/02/27 16:29:31;;;;;;;21.95;4.00;;;;;;;;;;4910665;29;20059;-86
2022/02/27 16:31:58;;;;;;;18.42;3.42;;;;;;;;;;4909626;29;20071;-86
2022/02/27 16:34:25;;;;;;;25.77;3.55;;;;;;;;;;4907348;29;20051;-85
2022/02/27 16:36:52;;;;;;;17.60;3.40;;;;;;;;;;4906340;29;20103;-85
2022/02/27 16:39:20;;;;;;;30.17;12.95;;;;;;;;;;4910707;29;20150;-86
2022/02/27 16:41:48;;;;;;;30.20;16.02;;;;;;;;;;4905648;29;20061;-85
2022/02/27 16:44:17;;;;;;;31.90;11.82;;;;;;;;;;4910062;29;20055;-85
2022/02/27 16:46:46;;;;;;;33.45;17.38;;;;;;;;;;4907552;29;20044;-84
2022/02/27 16:49:13;;;;;;;15.00;5.75;;;;;;;;;;4908079;29;20147;-83
2022/02/27 16:51:40;;;;;;;9.95;1.58;;;;;;;;;;4912185;29;20056;-85
2022/02/27 16:54:08;;;;;;;9.55;1.92;;;;;;;;;;4903794;29;20048;-85
2022/02/27 16:56:35;;;;;;;10.73;2.22;;;;;;;;;;4911170;29;20060;-85
2022/02/27 16:59:03;;;;;;;6.97;1.60;;;;;;;;;;4903125;29;20128;-85
2022/02/27 17:01:35;;;;;;;6.85;1.92;;;;;;;;;;4909982;29;20520;-85
2022/02/27 17:04:03;;;;;;;11.43;2.35;;;;;;;;;;4911846;29;20044;-87
2022/02/27 17:06:29;;;;;;;7.40;1.75;;;;;;;;;;4908947;29;20052;-87
2022/02/27 17:08:56;;;;;;;8.23;1.83;;;;;;;;;;4905917;29;20140;-86
2022/02/27 17:11:23;;;;;;;8.23;1.48;;;;;;;;;;4910179;29;20052;-85
2022/02/27 17:13:50;;;;;;;10.80;3.63;;;;;;;;;;4906655;29;20067;-87
2022/02/27 17:16:16;;;;;;;5.40;1.73;;;;;;;;;;4911080;29;20501;-90
2022/02/27 17:18:43;;;;;;;7.85;2.13;;;;;;;;;;4912381;29;20048;-87
2022/02/27 17:21:10;;;;;;;9.07;3.25;;;;;;;;;;4908824;29;20131;-89
2022/02/27 17:23:37;;;;;;;21.10;14.73;;;;;;;;;;4908930;29;20052;-89
2022/02/27 17:26:03;;;;;;;11.57;3.55;;;;;;;;;;4905897;29;20481;-92
2022/02/27 17:28:33;;;;;;;23.88;20.80;;;;;;;;;;4898131;29;20048;-91
2022/02/27 17:30:59;;;;;;;16.27;9.43;;;;;;;;;;4911678;29;20509;-88
2022/02/27 17:33:26;;;;;;;17.48;15.55;;;;;;;;;;4913082;29;20044;-90
2022/02/27 17:35:54;;;;;;;14.18;12.77;;;;;;;;;;4913311;29;20059;-93
2022/02/27 17:38:21;;;;;;;11.35;8.35;;;;;;;;;;4913349;29;20052;-91
2022/02/27 17:40:48;;;;;;;17.88;13.93;;;;;;;;;;4914247;29;20056;-90
2022/02/27 17:43:15;;;;;;;23.60;16.80;;;;;;;;;;4914262;29;20524;-89
2022/02/27 17:45:42;;;;;;;31.83;22.17;;;;;;;;;;4911550;29;20060;-89
2022/02/27 17:48:10;;;;;;;28.67;19.88;;;;;;;;;;4895749;29;20052;-87
2022/02/27 17:50:38;;;;;;;;;;;;;;;;;;4913203;29;20536;-89
2022/02/27 17:53:05;;;;;;;9.27;5.00;;;;;;;;;;4910406;29;20459;-89
2022/02/27 17:55:34;;;;;;;11.20;3.55;;;;;;;;;;4913376;29;20501;-90
2022/02/27 17:58:05;;;;;;;7.20;3.50;;;;;;;;;;4913974;29;20075;-93
2022/02/27 18:00:32;;;;;;;9.55;3.70;;;;;;;;;;4893838;29;20048;-91
2022/02/27 18:02:59;;;;;;;13.05;4.20;;;;;;;;;;4897017;29;20517;-92
2022/02/27 18:05:26;;;;;;;8.70;2.60;;;;;;;;;;4896815;29;20051;-89
2022/02/27 18:07:53;;;;;;;7.05;2.50;;;;;;;;;;4894886;29;20111;-91
2022/02/27 18:10:20;;;;;;;6.30;2.45;;;;;;;;;;4895753;29;20112;-92
2022/02/27 18:12:46;;;;;;;7.80;3.13;;;;;;;;;;4896172;29;20163;-91
2022/02/27 18:15:15;;;;;;;5.65;2.45;;;;;;;;;;4897548;29;20572;-90
2022/02/27 18:17:42;;;;;;;12.40;4.18;;;;;;;;;;4912682;29;20580;-89
2022/02/27 18:20:09;;;;;;;8.80;3.90;;;;;;;;;;4899284;29;20311;-90
2022/02/27 18:22:36;;;;;;;8.32;5.00;;;;;;;;;;4915193;29;20509;-88
2022/02/27 18:25:03;;;;;;;11.43;5.15;;;;;;;;;;4914517;29;20092;-89
2022/02/27 18:27:30;;;;;;;8.25;3.40;;;;;;;;;;4918338;29;20060;-87
2022/02/27 18:29:57;;;;;;;7.95;3.75;;;;;;;;;;4919834;29;20052;-89
2022/02/27 18:32:24;;;;;;;7.65;4.00;;;;;;;;;;4919865;29;20539;-87
2022/02/27 18:34:51;;;;;;;7.45;3.08;;;;;;;;;;4922163;29;20551;-87
2022/02/27 18:37:18;;;;;;;6.88;3.30;;;;;;;;;;4913005;29;20075;-85
2022/02/27 18:39:45;;;;;;;12.40;5.80;;;;;;;;;;4914924;29;20076;-88
2022/02/27 18:42:12;;;;;;;12.95;5.85;;;;;;;;;;4918527;29;20575;-84
2022/02/27 18:44:39;;;;;;;11.40;4.72;;;;;;;;;;4913316;29;20103;-84
2022/02/27 18:47:07;;;;;;;11.65;3.83;;;;;;;;;;4911826;29;20067;-86
2022/02/27 18:49:58;;;;;;;9.32;5.05;;;;;;;;;;4896410;29;20110;-87
2022/02/27 18:52:24;;;;;;;15.55;6.65;;;;;;;;;;4895458;29;20152;-87
2022/02/27 18:54:51;;;;;;;17.60;7.68;;;;;;;;;;4896683;29;20148;-88
2022/02/27 18:57:17;;;;;;;11.75;6.82;;;;;;;;;;4900313;29;20131;-87
2022/02/27 18:59:44;;;;;;;16.45;6.45;;;;;;;;;;4897617;29;20568;-88
2022/02/27 19:02:11;;;;;;;11.75;6.05;;;;;;;;;;4913143;29;20068;-86
2022/02/27 19:04:37;;;;;;;10.93;5.57;;;;;;;;;;4913579;29;20063;-87
2022/02/27 19:07:04;;;;;;;25.33;6.45;;;;;;;;;;4912716;29;20096;-86
2022/02/27 19:09:31;;;;;;;54.03;19.75;;;;;;;;;;4914053;29;20048;-87
2022/02/27 19:11:57;;;;;;;66.78;33.28;;;;;;;;;;4913265;29;20056;-86
2022/02/27 19:14:24;;;;;;;61.90;27.98;;;;;;;;;;4894682;29;20056;-87
2022/02/27 19:16:51;;;;;;;53.83;29.17;;;;;;;;;;4911911;29;20044;-85
2022/02/27 19:19:17;;;;;;;65.32;36.10;;;;;;;;;;4893244;29;20047;-84
2022/02/27 19:21:44;;;;;;;200.00;73.03;;;;;;;;;;4894908;29;20584;-84
2022/02/27 19:24:11;;;;;;;86.88;34.08;;;;;;;;;;4911891;29;20052;-83
2022/02/27 19:26:37;;;;;;;75.80;23.85;;;;;;;;;;4912304;29;20048;-83
2022/02/27 19:29:06;;;;;;;266.70;43.83;;;;;;;;;;4911599;29;20052;-83
2022/02/27 19:31:57;;;;;;;171.85;26.55;;;;;;;;;;4897250;29;20059;-84
2022/02/27 19:34:24;;;;;;;347.25;36.20;;;;;;;;;;4897880;29;20472;-93
2022/02/27 19:36:52;;;;;;;319.17;23.85;;;;;;;;;;4915788;29;20060;-95
2022/02/27 19:39:19;;;;;;;391.02;20.52;;;;;;;;;;4919964;29;20103;-93
2022/02/27 19:41:46;;;;;;;415.80;29.00;;;;;;;;;;4917245;29;20063;-96
2022/02/27 19:44:12;;;;;;;396.60;33.05;;;;;;;;;;4901742;29;20108;-93
2022/02/27 19:46:39;;;;;;;337.02;45.47;;;;;;;;;;4917344;29;20052;-94
2022/02/27 19:49:06;;;;;;;429.63;48.05;;;;;;;;;;4913778;29;20059;-92
2022/02/27 19:51:32;;;;;;;250.48;36.45;;;;;;;;;;4920948;29;20048;-90
2022/02/27 19:54:00;;;;;;;180.73;29.17;;;;;;;;;;4913247;29;20833;-91
2022/02/27 19:56:27;;;;;;;168.10;21.55;;;;;;;;;;4914241;29;20528;-91
2022/02/27 19:58:54;;;;;;;255.98;29.83;;;;;;;;;;4915427;29;20052;-87
2022/02/27 20:01:21;;;;;;;124.10;27.00;;;;;;;;;;4913006;29;20084;-88
2022/02/27 20:03:48;;;;;;;210.07;42.63;;;;;;;;;;4914687;29;20044;-90
2022/02/27 20:06:19;;;;;;;263.02;41.05;;;;;;;;;;4910985;29;20051;-92
2022/02/27 20:08:46;;;;;;;278.05;21.80;;;;;;;;;;4896678;29;20059;-92
2022/02/27 20:11:13;;;;;;;296.60;25.55;;;;;;;;;;4913433;29;20084;-94
2022/02/27 20:13:40;;;;;;;473.88;42.25;;;;;;;;;;4913713;29;20048;-93
2022/02/27 20:16:07;;;;;;;428.33;28.42;;;;;;;;;;4907698;29;20059;-91
2022/02/27 20:18:34;;;;;;;468.55;33.40;;;;;;;;;;4897393;29;20517;-91
2022/02/27 20:21:08;;;;;;;328.30;30.05;;;;;;;;;;4911416;29;20048;-89
2022/02/27 20:23:36;;;;;;;403.13;46.35;;;;;;;;;;4913282;29;20055;-90
2022/02/27 20:26:10;;;;;;;227.15;37.03;;;;;;;;;;4916824;29;20131;-90
2022/02/27 20:28:42;;;;;;;334.60;38.65;;;;;;;;;;4911326;29;20465;-88
2022/02/27 20:31:10;;;;;;;355.98;41.53;;;;;;;;;;4912979;29;20044;-89
2022/02/27 20:33:44;;;;;;;368.95;44.60;;;;;;;;;;4916179;29;20056;-88
2022/02/27 20:36:11;;;;;;;341.70;32.65;;;;;;;;;;4913620;29;20451;-87
2022/02/27 20:38:38;;;;;;;310.80;40.67;;;;;;;;;;4895592;29;20052;-89
2022/02/27 20:41:04;;;;;;;263.00;37.95;;;;;;;;;;4910289;29;20127;-84
2022/02/27 20:43:31;;;;;;;249.25;26.38;;;;;;;;;;4912903;29;20056;-87
2022/02/27 20:45:58;;;;;;;265.13;31.55;;;;;;;;;;4911309;29;20052;-86
2022/02/27 20:48:25;;;;;;;178.13;36.35;;;;;;;;;;4914039;29;20107;-86
2022/02/27 20:50:52;;;;;;;233.13;30.48;;;;;;;;;;4914160;29;20126;-87
2022/02/27 20:53:19;;;;;;;125.50;23.63;;;;;;;;;;4911745;29;20055;-88
2022/02/27 20:55:46;;;;;;;135.43;22.98;;;;;;;;;;4912993;29;20056;-88
2022/02/27 20:58:13;;;;;;;169.52;26.60;;;;;;;;;;4898220;29;20044;-88
2022/02/27 21:00:40;;;;;;;180.40;33.50;;;;;;;;;;4915015;29;20076;-88
2022/02/27 21:03:07;;;;;;;225.07;39.78;;;;;;;;;;4914010;29;20055;-88
2022/02/27 21:05:35;;;;;;;327.50;47.83;;;;;;;;;;4911942;29;20481;-88
2022/02/27 21:08:02;;;;;;;394.80;53.10;;;;;;;;;;4912341;29;20044;-87
2022/02/27 21:10:30;;;;;;;519.38;52.10;;;;;;;;;;4916441;29;20535;-87
2022/02/27 21:12:57;;;;;;;537.03;61.08;;;;;;;;;;4908125;29;20056;-88
2022/02/27 21:15:24;;;;;;;555.03;68.63;;;;;;;;;;4914983;29;20052;-88
2022/02/27 21:17:51;;;;;;;306.75;44.35;;;;;;;;;;4913024;29;20107;-88
2022/02/27 21:20:17;;;;;;;399.95;47.15;;;;;;;;;;4912411;29;20505;-90
2022/02/27 21:22:45;;;;;;;505.75;55.13;;;;;;;;;;4916328;29;20676;-86
2022/02/27 21:25:13;;;;;;;441.27;48.45;;;;;;;;;;4904666;29;20057;-89
2022/02/27 21:27:42;;;;;;;336.15;32.38;;;;;;;;;;4907455;29;20059;-88
2022/02/27 21:30:11;;;;;;;336.58;29.20;;;;;;;;;;4899525;29;20139;-88
2022/02/27 21:32:39;;;;;;;280.70;29.08;;;;;;;;;;4914474;29;20051;-89
2022/02/27 21:35:08;;;;;;;159.52;23.80;;;;;;;;;;4907824;29;20139;-83
2022/02/27 21:37:34;;;;;;;101.40;19.95;;;;;;;;;;4907873;29;20075;-87
2022/02/27 21:40:04;;;;;;;94.18;20.10;;;;;;;;;;4905972;29;20044;-88
2022/02/27 21:42:31;;;;;;;104.47;21.20;;;;;;;;;;4910147;29;20103;-88
2022/02/27 21:44:58;;;;;;;89.93;16.75;;;;;;;;;;4908806;29;20384;-89